createdAt,value
2024-03-31T00:12:55.079Z,76.1
2024-03-31T00:28:19.580Z,76.2
2024-03-31T00:43:43.563Z,76.5
2024-03-31T00:59:08.190Z,76.5
2024-03-31T01:14:32.283Z,76.4
2024-03-31T01:29:56.821Z,76.6
2024-03-31T01:45:21.454Z,76.9
2024-03-31T02:00:47.046Z,77.4
2024-03-31T02:16:11.922Z,77.1
2024-03-31T02:31:36.624Z,77.1
2024-03-31T02:47:01.567Z,77.2
2024-03-31T03:02:50.569Z,77.6
2024-03-31T03:18:16.283Z,77.6
2024-03-31T03:33:41.110Z,77.8
2024-03-31T03:49:05.782Z,78.1
2024-03-31T04:04:30.711Z,78.5
2024-03-31T04:19:55.343Z,78.4
2024-03-31T04:35:20.441Z,78.2
2024-03-31T04:50:44.891Z,78.6
2024-03-31T05:06:09.442Z,78.6
2024-03-31T05:21:36.065Z,78.5
2024-03-31T05:37:00.578Z,79
2024-03-31T05:52:25.787Z,78.7
2024-03-31T06:07:50.507Z,78.8
2024-03-31T06:23:15.202Z,79
2024-03-31T06:38:40.335Z,79.1
2024-03-31T06:54:04.963Z,79.2
2024-03-31T07:09:29.843Z,78.5
2024-03-31T07:24:54.472Z,79.3
2024-03-31T07:40:19.686Z,79.2
2024-03-31T07:55:45.323Z,79.6
2024-03-31T08:11:10.090Z,79.6
2024-03-31T08:26:34.943Z,80.1
2024-03-31T08:41:59.720Z,80.2
2024-03-31T08:57:24.999Z,80.2
2024-03-31T09:12:49.875Z,79.8
2024-03-31T09:28:14.781Z,79.6
2024-03-31T09:43:40.030Z,79.8
2024-03-31T09:59:05.171Z,80.1
2024-03-31T10:14:30.925Z,80.2
2024-03-31T10:29:56.610Z,79.4
2024-03-31T10:45:22.205Z,78.5
2024-03-31T11:00:47.799Z,78.5
2024-03-31T11:16:12.574Z,78.2
2024-03-31T11:31:37.928Z,77.5
2024-03-31T11:47:03.016Z,76.9
2024-03-31T12:02:27.930Z,76.5
2024-03-31T12:17:54.145Z,72.5
2024-03-31T12:33:19.732Z,72.9
2024-03-31T12:48:43.575Z,74.9
2024-03-31T13:04:08.449Z,74.6
2024-03-31T13:19:33.866Z,74.6
2024-03-31T13:34:59.172Z,74.5
2024-03-31T13:50:23.935Z,74
2024-03-31T14:05:52.725Z,72.7
2024-03-31T14:21:17.438Z,73.1
2024-03-31T14:36:42.621Z,71.4
2024-03-31T14:52:08.098Z,71.6
2024-03-31T15:07:32.101Z,72.1
2024-03-31T15:22:57.689Z,70.4
2024-03-31T15:38:22.827Z,68.4
2024-03-31T15:53:47.493Z,68.8
2024-03-31T16:09:12.012Z,69.2
2024-03-31T16:24:36.761Z,69.4
2024-03-31T16:40:02.889Z,69
2024-03-31T16:55:26.738Z,71.8
2024-03-31T17:10:50.669Z,72.7
2024-03-31T17:26:15.485Z,73
2024-03-31T17:41:40.233Z,73.3
2024-03-31T17:57:04.808Z,73.4
2024-03-31T18:12:29.389Z,73.5
2024-03-31T18:27:54.278Z,73.7
2024-03-31T18:43:18.592Z,73.8
2024-03-31T18:58:43.362Z,73.8
2024-03-31T19:14:07.827Z,73
2024-03-31T19:29:32.319Z,73.9
2024-03-31T19:44:57.062Z,74.1
2024-03-31T20:00:22.936Z,74.2
2024-03-31T20:15:48.041Z,74.4
2024-03-31T20:31:12.691Z,74.7
2024-03-31T20:46:37.467Z,75.3
2024-03-31T21:02:02.629Z,75.6
2024-03-31T21:17:27.145Z,75.9
2024-03-31T21:32:52.503Z,76.2
2024-03-31T21:48:17.280Z,76.7
2024-03-31T22:03:41.685Z,76.6
2024-03-31T22:19:07.253Z,76.7
2024-03-31T22:34:31.748Z,76.9
2024-03-31T22:49:57.176Z,77
2024-03-31T23:05:21.801Z,77.1
2024-03-31T23:20:46.801Z,77.2
2024-03-31T23:36:11.432Z,77.4
2024-03-31T23:51:36.456Z,77.6
